Time;durP1;ratioP1;P1;durP2;ratioP2;P2;SDS_P1;SDS_P2;PMS_P1;PMS_P2;Temp;Humidity;BMP_temperature;BMP_pressure;BME280_temperature;BME280_humidity;BME280_pressure;Samples;Min_cycle;Max_cycle;Signal;HPM_P1;HPM_P2
2021/12/26 00:01:28;;;;;;;5.78;4.82;;;;;;;2.10;64.10;99258.69;7657529;32;38666;-78
2021/12/26 00:05:44;;;;;;;7.68;4.25;;;;;;;1.91;64.76;99252.53;7657279;32;40078;-76
2021/12/26 00:10:01;;;;;;;6.10;4.00;;;;;;;2.30;63.75;99253.03;7657177;32;39962;-77
2021/12/26 00:14:17;;;;;;;7.32;4.60;;;;;;;2.24;63.20;99247.50;7657173;32;38565;-76
2021/12/26 00:18:33;;;;;;;7.95;4.28;;;;;;;1.73;65.44;99254.22;7657070;32;37139;-77
2021/12/26 00:22:50;;;;;;;5.40;4.12;;;;;;;1.56;65.29;99255.91;7657082;32;40835;-77
2021/12/26 00:27:08;;;;;;;5.18;4.00;;;;;;;1.56;65.02;99247.84;7656856;32;40006;-77
2021/12/26 00:31:25;;;;;;;4.65;3.95;;;;;;;1.60;63.28;99260.56;7656643;32;37754;-76
2021/12/26 00:35:41;;;;;;;6.93;4.20;;;;;;;1.80;62.97;99268.41;7656726;32;37339;-77
2021/12/26 00:39:57;;;;;;;6.22;3.90;;;;;;;2.01;62.13;99263.56;7656718;32;38961;-77
2021/12/26 00:44:13;;;;;;;3.65;3.33;;;;;;;1.80;62.74;99254.94;7656489;32;40536;-77
2021/12/26 00:48:31;;;;;;;5.60;3.60;;;;;;;1.48;63.54;99257.84;7656391;32;38714;-75
2021/12/26 00:52:47;;;;;;;4.05;3.55;;;;;;;1.97;61.57;99263.22;7658150;32;37127;-77
2021/12/26 00:57:04;;;;;;;3.95;3.55;;;;;;;1.52;63.20;99278.88;7660034;32;38959;-77
2021/12/26 01:01:20;;;;;;;5.43;4.03;;;;;;;2.01;62.48;99282.38;7659849;32;40017;-78
2021/12/26 01:05:39;;;;;;;4.87;3.90;;;;;;;1.58;63.10;99288.72;7659671;32;38667;-77
2021/12/26 01:09:55;;;;;;;5.45;4.00;;;;;;;1.93;61.94;99296.97;7653642;32;36504;-78
2021/12/26 01:14:13;;;;;;;5.57;4.20;;;;;;;2.00;61.66;99291.50;7659766;32;40049;-77
2021/12/26 01:18:37;;;;;;;4.43;3.80;;;;;;;2.18;61.26;99299.53;7659717;32;40118;-77
2021/12/26 01:22:53;;;;;;;5.40;4.20;;;;;;;2.27;60.83;99310.78;7659618;32;37692;-77
2021/12/26 01:27:09;;;;;;;5.35;4.00;;;;;;;2.07;61.28;99313.75;7659512;32;36776;-78
2021/12/26 01:31:26;;;;;;;7.20;4.90;;;;;;;2.06;60.99;99312.91;7659588;32;39790;-77
2021/12/26 01:35:42;;;;;;;7.82;4.47;;;;;;;2.27;60.66;99315.34;7659433;32;40072;-78
2021/12/26 01:39:58;;;;;;;5.30;4.10;;;;;;;2.14;60.85;99319.88;7659366;32;37768;-77
2021/12/26 01:44:15;;;;;;;6.18;4.28;;;;;;;2.05;60.46;99315.81;7659400;32;36996;-77
2021/12/26 01:48:32;;;;;;;4.95;4.25;;;;;;;2.05;59.69;99318.50;7659300;32;39404;-77
2021/12/26 01:52:48;;;;;;;3.97;3.35;;;;;;;1.92;60.29;99316.03;7659381;32;40096;-77
2021/12/26 01:57:08;;;;;;;4.45;3.62;;;;;;;2.02;59.61;99317.13;7659151;32;37876;-77
2021/12/26 02:01:24;;;;;;;5.20;3.90;;;;;;;1.73;58.86;99318.72;7659152;32;38233;-78
2021/12/26 02:05:41;;;;;;;5.93;3.83;;;;;;;1.96;59.15;99317.19;7645395;32;40109;-77
2021/12/26 02:09:57;;;;;;;4.90;3.62;;;;;;;1.72;58.45;99321.63;7658946;32;39910;-76
2021/12/26 02:14:13;;;;;;;4.40;3.80;;;;;;;1.82;58.69;99317.38;7658889;32;37758;-77
2021/12/26 02:18:29;;;;;;;6.47;3.90;;;;;;;2.00;58.21;99310.31;7659001;32;36782;-78
2021/12/26 02:22:51;;;;;;;6.60;4.20;;;;;;;2.02;57.66;99305.56;7658936;32;39395;-78
2021/12/26 02:31:42;;;;;;;4.43;3.72;;;;;;;2.06;57.40;99307.53;7658841;32;37836;-78
2021/12/26 02:35:58;;;;;;;5.25;3.67;;;;;;;2.02;54.89;99317.13;7658854;32;38274;-78
2021/12/26 02:40:16;;;;;;;5.70;3.92;;;;;;;2.05;56.43;99318.50;7658659;32;39333;-77
2021/12/26 02:44:32;;;;;;;4.80;3.97;;;;;;;1.78;58.09;99329.63;7658682;32;39901;-77
2021/12/26 02:48:49;;;;;;;4.62;3.80;;;;;;;1.81;57.43;99331.88;7658509;32;38570;-77
2021/12/26 02:53:06;;;;;;;5.50;3.83;;;;;;;2.00;56.97;99334.50;7658569;32;37000;-77
2021/12/26 02:57:22;;;;;;;5.15;3.60;;;;;;;1.94;56.65;99346.19;7658507;32;39296;-77
2021/12/26 03:01:38;;;;;;;3.60;3.30;;;;;;;1.98;56.16;99345.50;7658373;32;39940;-77
2021/12/26 03:06:02;;;;;;;5.72;3.70;;;;;;;1.58;55.91;99337.91;7658331;32;38656;-75
2021/12/26 03:10:22;;;;;;;5.15;3.90;;;;;;;1.87;56.81;99332.81;7658355;32;37943;-77
2021/12/26 03:14:39;;;;;;;4.30;3.60;;;;;;;1.48;56.64;99342.97;7657787;32;39409;-76
2021/12/26 03:18:57;;;;;;;4.20;3.42;;;;;;;1.76;56.52;99338.94;7658232;32;39588;-77
2021/12/26 03:23:15;;;;;;;3.58;3.28;;;;;;;2.02;55.71;99343.19;7644415;32;39075;-77
2021/12/26 03:27:32;;;;;;;7.53;3.60;;;;;;;2.15;55.03;99337.63;7658188;32;37376;-77
2021/12/26 03:31:48;;;;;;;5.68;3.78;;;;;;;2.13;55.69;99341.59;7658201;32;39394;-76
2021/12/26 03:36:04;;;;;;;4.57;3.30;;;;;;;1.80;56.15;99334.78;7658052;32;40006;-76
2021/12/26 03:40:21;;;;;;;5.10;3.35;;;;;;;2.06;54.88;99330.94;7657883;32;37841;-77
2021/12/26 03:44:37;;;;;;;4.22;3.50;;;;;;;1.91;55.45;99325.13;7657868;32;37025;-77
2021/12/26 03:48:53;;;;;;;5.03;3.47;;;;;;;1.89;55.58;99328.03;7657838;32;40018;-77
2021/12/26 03:53:11;;;;;;;4.78;3.45;;;;;;;2.00;55.39;99337.19;7657638;32;39640;-77
2021/12/26 03:57:27;;;;;;;4.80;3.42;;;;;;;1.99;54.60;99336.38;7657534;32;38581;-77
2021/12/26 04:01:43;;;;;;;5.68;3.72;;;;;;;1.97;55.24;99349.25;7657637;32;38626;-77
2021/12/26 04:05:59;;;;;;;3.83;3.40;;;;;;;2.07;55.00;99351.41;7656881;32;40309;-78
2021/12/26 04:10:18;;;;;;;5.30;3.55;;;;;;;1.94;55.91;99346.19;7643668;32;39672;-78
2021/12/26 04:14:35;;;;;;;4.78;3.50;;;;;;;1.94;54.85;99346.19;7657251;32;38563;-77
2021/12/26 04:18:51;;;;;;;4.30;3.35;;;;;;;2.03;53.69;99344.81;7657251;32;37096;-78
2021/12/26 04:23:07;;;;;;;3.50;3.20;;;;;;;1.90;54.77;99343.13;7657120;32;39332;-77
2021/12/26 04:27:24;;;;;;;10.38;3.50;;;;;;;1.93;53.16;99344.53;7658265;32;40784;-77
2021/12/26 04:31:40;;;;;;;5.37;3.83;;;;;;;1.97;52.96;99343.88;7660108;32;37891;-76
2021/12/26 04:35:56;;;;;;;3.67;3.25;;;;;;;1.92;53.26;99348.28;7660194;32;37275;-76
2021/12/26 04:40:14;;;;;;;3.60;3.30;;;;;;;1.90;54.23;99356.56;7660137;32;39235;-76
2021/12/26 04:44:31;;;;;;;3.85;3.25;;;;;;;1.89;53.21;99346.84;7660098;32;42220;-77
2021/12/26 04:48:47;;;;;;;4.93;3.10;;;;;;;1.83;53.26;99351.28;7659907;32;37855;-78
2021/12/26 04:53:03;;;;;;;6.37;3.37;;;;;;;1.98;52.13;99348.19;7659962;32;37393;-77
2021/12/26 04:57:19;;;;;;;4.07;3.25;;;;;;;1.88;51.31;99353.28;7659985;32;38898;-77
2021/12/26 05:01:35;;;;;;;4.15;3.33;;;;;;;2.05;51.91;99348.09;7659895;32;41233;-77
2021/12/26 05:05:52;;;;;;;3.87;3.33;;;;;;;2.02;51.73;99348.56;7659573;32;38749;-78
2021/12/26 05:10:09;;;;;;;4.70;3.70;;;;;;;1.79;53.77;99363.50;7659676;32;37122;-77
2021/12/26 05:14:25;;;;;;;3.53;3.22;;;;;;;1.98;51.23;99371.56;7659762;32;40030;-77
2021/12/26 05:18:41;;;;;;;4.97;3.55;;;;;;;1.98;52.42;99379.62;7659715;32;39675;-76
2021/12/26 05:22:57;;;;;;;6.10;3.33;;;;;;;1.92;54.23;99383.22;7659697;32;38338;-77
2021/12/26 05:27:14;;;;;;;7.43;3.95;;;;;;;1.94;54.14;99389.19;7659596;32;37033;-77
2021/12/26 05:31:30;;;;;;;6.30;3.67;;;;;;;1.88;53.85;99388.25;7659388;32;40256;-75
2021/12/26 05:35:46;;;;;;;3.83;3.20;;;;;;;1.79;54.01;99387.69;7659479;32;40175;-76
2021/12/26 05:40:04;;;;;;;5.30;3.65;;;;;;;1.85;53.67;99392.19;7659053;32;37773;-77
2021/12/26 05:44:20;;;;;;;4.78;3.47;;;;;;;1.91;54.37;99395.03;7659462;32;37113;-78
2021/12/26 05:48:36;;;;;;;3.55;3.05;;;;;;;1.97;54.17;99394.13;7659296;32;39449;-77
2021/12/26 05:52:52;;;;;;;4.43;3.22;;;;;;;1.68;53.82;99401.91;7659249;32;40098;-77
2021/12/26 05:57:08;;;;;;;6.53;3.15;;;;;;;1.77;54.21;99397.84;7659161;32;37832;-76
2021/12/26 06:01:24;;;;;;;5.32;3.47;;;;;;;1.83;53.30;99401.53;7659187;32;37875;-76
2021/12/26 06:05:41;;;;;;;3.40;3.10;;;;;;;1.76;53.29;99414.19;7658849;32;39414;-77
2021/12/26 06:09:57;;;;;;;4.90;3.83;;;;;;;2.01;53.08;99416.81;7659070;32;40882;-77
2021/12/26 06:14:13;;;;;;;5.22;3.47;;;;;;;1.80;54.75;99426.16;7658846;32;37890;-77
2021/12/26 06:18:30;;;;;;;3.85;3.45;;;;;;;1.83;54.40;99426.53;7659055;32;37294;-77
2021/12/26 06:22:46;;;;;;;4.43;3.40;;;;;;;1.85;53.33;99429.00;7658958;32;39366;-75
2021/12/26 06:27:03;;;;;;;4.60;3.35;;;;;;;1.78;51.58;99431.75;7658797;32;39875;-78
2021/12/26 06:31:19;;;;;;;4.12;3.20;;;;;;;1.68;51.87;99431.44;7658751;32;37841;-77
2021/12/26 06:35:36;;;;;;;5.25;3.92;;;;;;;1.76;51.38;99428.47;7658786;32;36882;-78
2021/12/26 06:39:52;;;;;;;4.75;3.67;;;;;;;1.64;50.59;99433.75;7658706;32;40128;-77
2021/12/26 06:44:08;;;;;;;3.87;3.40;;;;;;;1.51;52.31;99441.94;7658703;32;40854;-77
2021/12/26 06:48:25;;;;;;;6.55;4.00;;;;;;;1.67;51.95;99440.53;7657860;32;39397;-78
2021/12/26 06:52:41;;;;;;;4.25;3.83;;;;;;;1.69;51.66;99450.03;7644735;32;37778;-77
2021/12/26 06:56:57;;;;;;;4.82;3.55;;;;;;;1.52;51.34;99450.81;7658514;32;39356;-76
2021/12/26 07:01:13;;;;;;;4.95;3.97;;;;;;;1.23;50.92;99455.84;7658377;32;40598;-77
2021/12/26 07:05:30;;;;;;;7.03;4.68;;;;;;;1.57;49.74;99459.03;7658104;32;37894;-77
2021/12/26 07:09:46;;;;;;;8.93;4.80;;;;;;;1.44;50.15;99463.50;7658266;32;37869;-75
2021/12/26 07:14:02;;;;;;;5.30;4.05;;;;;;;1.64;50.52;99459.81;7658321;32;39276;-75
2021/12/26 07:18:18;;;;;;;7.32;4.05;;;;;;;1.66;49.26;99463.09;7658167;32;39875;-75
2021/12/26 07:22:35;;;;;;;5.55;4.07;;;;;;;1.75;48.60;99467.16;7658193;32;37792;-76
2021/12/26 07:26:51;;;;;;;8.18;4.40;;;;;;;1.37;51.17;99486.91;7658253;32;37205;-76
2021/12/26 07:31:08;;;;;;;7.10;4.25;;;;;;;1.41;53.83;99482.72;7657962;32;41315;-75
2021/12/26 07:35:24;;;;;;;5.37;3.60;;;;;;;1.76;48.35;99482.25;7657776;32;40197;-74
2021/12/26 07:39:41;;;;;;;4.53;3.75;;;;;;;1.83;45.69;99493.75;7657725;32;38532;-75
2021/12/26 07:43:59;;;;;;;5.93;4.20;;;;;;;1.68;50.75;99488.69;7631908;32;37305;-75
2021/12/26 07:48:15;;;;;;;7.28;3.85;;;;;;;1.96;50.76;99486.59;7657743;32;39350;-75
2021/12/26 07:52:36;;;;;;;6.82;4.82;;;;;;;1.94;49.28;99480.63;7657785;32;40005;-76
2021/12/26 07:56:54;;;;;;;6.28;4.70;;;;;;;2.13;45.41;99471.50;7657532;32;37994;-73
2021/12/26 08:01:10;;;;;;;6.55;4.80;;;;;;;2.13;45.75;99468.00;7657347;32;36873;-76
2021/12/26 08:05:27;;;;;;;9.80;4.87;;;;;;;2.00;47.02;99480.56;7657326;32;39423;-77
2021/12/26 08:09:43;;;;;;;8.40;4.28;;;;;;;2.28;46.14;99486.44;7657239;32;41288;-76
2021/12/26 08:13:59;;;;;;;6.55;3.83;;;;;;;2.19;45.17;99492.13;7657123;32;37472;-76
2021/12/26 08:18:15;;;;;;;5.65;3.97;;;;;;;2.16;43.89;99489.87;7657169;32;36986;-76
2021/12/26 08:22:32;;;;;;;4.53;3.90;;;;;;;2.31;44.40;99486.00;7657003;32;40111;-76
2021/12/26 08:26:51;;;;;;;7.62;4.85;;;;;;;2.42;43.82;99494.12;7656852;32;40042;-75
2021/12/26 08:31:09;;;;;;;7.20;4.50;;;;;;;2.48;43.64;99495.09;7656766;32;37971;-77
2021/12/26 08:35:26;;;;;;;8.32;4.45;;;;;;;2.46;43.53;99499.88;7656849;32;36018;-76
2021/12/26 08:39:44;;;;;;;12.05;4.30;;;;;;;2.50;42.04;99506.47;7643065;32;40075;-76
2021/12/26 08:44:00;;;;;;;7.37;4.20;;;;;;;2.60;39.77;99501.38;7656550;32;39949;-76
2021/12/26 08:48:16;;;;;;;8.10;4.43;;;;;;;2.50;41.51;99511.00;7656433;32;37872;-76
2021/12/26 08:52:32;;;;;;;7.93;4.70;;;;;;;2.83;41.46;99516.00;7656422;32;37683;-75
2021/12/26 08:56:48;;;;;;;7.90;4.40;;;;;;;3.00;39.03;99510.75;7656284;32;39286;-76
2021/12/26 09:01:05;;;;;;;7.75;3.90;;;;;;;3.16;38.83;99504.75;7656077;32;39949;-75
2021/12/26 09:05:21;;;;;;;7.05;3.75;;;;;;;3.36;37.74;99511.69;7655615;32;37911;-75
2021/12/26 09:09:37;;;;;;;7.15;4.25;;;;;;;3.27;37.27;99508.50;7655687;32;38448;-75
2021/12/26 09:13:53;;;;;;;5.82;3.50;;;;;;;3.09;38.55;99509.41;7657775;32;40465;-75
2021/12/26 09:18:10;;;;;;;8.00;3.85;;;;;;;3.39;37.31;99514.75;7659578;32;39963;-75
2021/12/26 09:22:26;;;;;;;5.80;3.72;;;;;;;3.25;36.14;99501.72;7659475;32;37917;-75
2021/12/26 09:26:42;;;;;;;4.10;3.53;;;;;;;3.57;35.78;99502.25;7659485;32;37904;-74
2021/12/26 09:30:58;;;;;;;6.15;3.60;;;;;;;3.70;35.85;99485.03;7659448;32;39343;-74
2021/12/26 09:35:15;;;;;;;7.35;3.80;;;;;;;3.59;35.37;99473.19;7659467;32;40865;-74
2021/12/26 09:39:32;;;;;;;6.70;3.85;;;;;;;3.67;35.39;99455.81;7659485;32;37569;-74
2021/12/26 09:43:48;;;;;;;9.35;4.30;;;;;;;3.93;36.14;99459.91;7659310;32;37024;-74
2021/12/26 09:48:05;;;;;;;8.38;4.50;;;;;;;4.16;36.54;99458.22;7659237;32;39490;-75
2021/12/26 09:52:22;;;;;;;8.30;4.50;;;;;;;3.91;35.82;99456.62;7659134;32;39955;-74
2021/12/26 09:56:41;;;;;;;6.15;3.67;;;;;;;4.18;35.91;99445.34;7659197;32;39436;-74
2021/12/26 10:00:57;;;;;;;7.12;3.50;;;;;;;4.08;34.08;99452.16;7658940;32;37837;-74
2021/12/26 10:05:13;;;;;;;6.22;3.72;;;;;;;4.31;35.75;99453.16;7658618;32;39877;-73
2021/12/26 10:09:30;;;;;;;6.10;3.20;;;;;;;4.76;32.42;99459.69;7658931;32;40599;-73
2021/12/26 10:13:56;;;;;;;5.53;3.22;;;;;;;4.82;32.33;99458.72;7659097;32;37815;-73
2021/12/26 10:18:28;;;;;;;6.22;3.30;;;;;;;5.40;32.38;99454.06;7659110;32;37126;-77
2021/12/26 10:22:44;;;;;;;5.47;3.22;;;;;;;5.71;31.33;99451.81;7658888;32;40022;-74
2021/12/26 10:27:13;;;;;;;6.00;3.05;;;;;;;5.84;29.62;99446.06;7657765;32;39905;-72
2021/12/26 10:31:29;;;;;;;3.85;2.60;;;;;;;5.88;27.32;99439.09;7658652;32;37868;-71
2021/12/26 10:35:45;;;;;;;5.37;2.72;;;;;;;5.92;28.05;99442.13;7658784;32;37431;-72
2021/12/26 10:40:04;;;;;;;6.20;2.90;;;;;;;6.53;27.20;99423.13;7658836;32;39426;-73
2021/12/26 10:44:30;;;;;;;2.92;2.53;;;;;;;6.53;26.51;99428.53;7658348;32;39892;-72
2021/12/26 10:48:46;;;;;;;3.75;2.58;;;;;;;6.90;27.20;99438.69;7658533;32;37977;-74
2021/12/26 10:53:07;;;;;;;4.57;2.50;;;;;;;7.22;23.86;99432.47;7658449;32;36611;-73
2021/12/26 10:57:29;;;;;;;3.92;2.65;;;;;;;7.18;26.22;99439.50;7658466;32;39222;-73
2021/12/26 11:01:45;;;;;;;5.90;2.97;;;;;;;7.21;25.65;99426.25;7645008;32;39857;-72
2021/12/26 11:06:04;;;;;;;5.10;2.58;;;;;;;7.63;25.52;99422.75;7657497;32;38671;-73
2021/12/26 11:10:26;;;;;;;3.08;2.30;;;;;;;7.84;26.10;99428.31;7656032;32;35023;-72
2021/12/26 11:15:03;;;;;;;2.17;1.90;;;;;;;8.15;24.41;99423.84;7658269;32;40049;-72
2021/12/26 11:19:42;;;;;;;2.78;2.10;;;;;;;8.47;22.08;99420.22;7658136;32;39961;-71
2021/12/26 11:23:58;;;;;;;3.10;2.12;;;;;;;8.34;20.61;99426.91;7657979;32;37942;-72
2021/12/26 11:28:17;;;;;;;4.37;2.20;;;;;;;8.42;20.46;99425.59;7643830;32;37067;-72
2021/12/26 11:32:33;;;;;;;2.37;1.95;;;;;;;8.70;22.49;99428.97;7658180;32;39580;-74
2021/12/26 11:36:50;;;;;;;2.65;2.05;;;;;;;8.89;22.14;99424.66;7656976;32;40022;-73
2021/12/26 11:41:23;;;;;;;3.03;1.90;;;;;;;8.66;21.79;99423.25;7656090;32;37400;-74
2021/12/26 11:46:00;;;;;;;2.50;1.80;;;;;;;9.24;23.29;99422.22;7644382;32;37093;-73
2021/12/26 11:50:25;;;;;;;1.70;1.60;;;;;;;9.27;23.07;99411.63;7657600;32;39809;-73
2021/12/26 11:54:48;;;;;;;5.78;2.22;;;;;;;9.21;19.61;99407.28;7657110;32;40739;-73
2021/12/26 11:59:16;;;;;;;2.42;1.90;;;;;;;9.55;21.18;99409.41;7641609;32;37549;-73
2021/12/26 12:03:32;;;;;;;2.95;1.98;;;;;;;9.73;19.46;99408.84;7657230;32;37493;-76
2021/12/26 12:07:56;;;;;;;2.25;1.80;;;;;;;9.31;20.47;99404.56;7657151;32;39260;-74
2021/12/26 12:12:14;;;;;;;2.83;1.87;;;;;;;9.97;18.30;99402.81;7657333;32;40927;-75
2021/12/26 12:16:33;;;;;;;3.40;1.77;;;;;;;10.26;18.04;99400.25;7657308;32;36857;-75
2021/12/26 12:21:14;;;;;;;1.98;1.67;;;;;;;9.77;20.60;99407.19;7656441;32;37090;-75
2021/12/26 12:25:38;;;;;;;3.33;2.10;;;;;;;9.97;18.71;99400.09;7654560;32;39544;-74
2021/12/26 12:29:54;;;;;;;3.55;2.08;;;;;;;9.77;19.45;99404.47;7656876;32;39972;-75
2021/12/26 12:34:14;;;;;;;4.75;1.90;;;;;;;9.65;21.04;99401.22;7656662;32;38793;-74
2021/12/26 12:38:40;;;;;;;2.78;2.10;;;;;;;9.27;20.97;99411.63;7656762;32;36755;-75
2021/12/26 12:43:17;;;;;;;1.55;1.45;;;;;;;9.99;20.82;99406.06;7656454;32;38989;-76
2021/12/26 12:47:33;;;;;;;1.92;1.77;;;;;;;9.96;18.43;99401.16;7657309;32;40522;-75
2021/12/26 12:51:49;;;;;;;5.47;2.30;;;;;;;9.82;19.04;99413.75;7659931;32;38517;-74
2021/12/26 12:56:07;;;;;;;1.95;1.73;;;;;;;10.61;19.65;99416.75;7660041;32;37163;-75
2021/12/26 13:00:24;;;;;;;3.50;1.90;;;;;;;10.90;19.37;99409.47;7646668;32;41007;-74
2021/12/26 13:04:44;;;;;;;4.32;2.12;;;;;;;10.88;18.39;99384.37;7659772;32;40204;-74
2021/12/26 13:09:00;;;;;;;4.93;1.80;;;;;;;11.05;18.96;99391.34;7659915;32;37880;-74
2021/12/26 13:13:18;;;;;;;2.30;1.80;;;;;;;11.69;19.26;99391.31;7646250;32;37806;-74
2021/12/26 13:17:42;;;;;;;3.25;1.80;;;;;;;12.03;19.72;99385.78;7659737;32;39405;-75
2021/12/26 13:21:59;;;;;;;3.50;2.40;;;;;;;12.18;19.40;99382.06;7659616;32;39907;-74
2021/12/26 13:26:15;;;;;;;2.12;1.70;;;;;;;12.52;19.23;99383.81;7659309;32;38898;-74
2021/12/26 13:30:33;;;;;;;2.17;1.50;;;;;;;13.11;18.36;99381.56;7659515;32;37745;-75
2021/12/26 13:34:55;;;;;;;3.60;2.08;;;;;;;14.84;16.63;99364.78;7659441;32;39353;-75
2021/12/26 13:39:21;;;;;;;3.27;2.00;;;;;;;16.70;14.87;99361.41;7659380;32;40788;-75
2021/12/26 13:43:40;;;;;;;2.08;1.25;;;;;;;18.01;13.60;99348.19;7659319;32;37972;-75
2021/12/26 13:47:56;;;;;;;2.97;1.85;;;;;;;19.69;12.93;99343.72;7659362;32;37017;-75
2021/12/26 13:52:20;;;;;;;4.10;1.80;;;;;;;20.88;10.87;99341.91;7659157;32;40122;-74
2021/12/26 13:56:49;;;;;;;3.62;1.92;;;;;;;21.25;10.68;99345.34;7659275;32;40761;-74
2021/12/26 14:01:05;;;;;;;4.28;2.10;;;;;;;19.51;11.26;99346.69;7658768;32;38685;-74
2021/12/26 14:05:23;;;;;;;7.95;2.65;;;;;;;18.06;12.58;99361.00;7658816;32;38007;-75
2021/12/26 14:09:42;;;;;;;2.30;1.48;;;;;;;16.69;13.81;99366.13;7659025;32;39815;-75
2021/12/26 14:14:06;;;;;;;3.53;1.67;;;;;;;16.04;14.19;99367.75;7659013;32;40704;-73
2021/12/26 14:18:35;;;;;;;6.87;3.00;;;;;;;14.20;14.57;99376.56;7658781;32;37828;-73
2021/12/26 14:22:52;;;;;;;2.80;1.92;;;;;;;13.36;16.65;99391.28;7659001;32;36712;-74
2021/12/26 14:27:08;;;;;;;3.58;2.15;;;;;;;12.46;17.44;99393.19;7658826;32;39421;-74
2021/12/26 14:31:32;;;;;;;13.82;6.10;;;;;;;11.14;18.84;99402.47;7658808;32;41126;-73
2021/12/26 14:35:59;;;;;;;13.93;6.05;;;;;;;10.42;22.51;99401.03;7658791;32;37794;-74
2021/12/26 14:40:15;;;;;;;20.40;8.93;;;;;;;9.65;23.39;99414.03;7658836;32;37196;-75
2021/12/26 14:44:31;;;;;;;16.33;6.82;;;;;;;9.00;24.37;99418.16;7658636;32;38967;-75
2021/12/26 14:48:48;;;;;;;10.30;5.35;;;;;;;8.09;25.74;99430.34;7658543;32;40008;-74
2021/12/26 14:53:13;;;;;;;8.15;4.57;;;;;;;7.67;27.35;99423.03;7658263;32;38625;-75
2021/12/26 14:57:38;;;;;;;8.00;4.60;;;;;;;6.94;27.48;99437.09;7646650;32;38119;-74
2021/12/26 15:02:18;;;;;;;9.98;4.97;;;;;;;6.43;29.54;99431.94;7658666;32;40243;-75
2021/12/26 15:06:52;;;;;;;5.35;3.33;;;;;;;6.06;30.99;99443.41;7658287;32;40817;-74
2021/12/26 15:11:10;;;;;;;4.10;2.87;;;;;;;5.45;29.59;99459.56;7657402;32;37892;-75
2021/12/26 15:15:40;;;;;;;5.93;2.92;;;;;;;5.57;29.70;99457.56;7657893;32;37272;-74
2021/12/26 15:19:56;;;;;;;5.53;3.10;;;;;;;5.16;29.73;99462.31;7658244;32;39542;-73
2021/12/26 15:24:12;;;;;;;4.62;3.20;;;;;;;5.03;29.94;99463.44;7658233;32;40059;-73
2021/12/26 15:28:50;;;;;;;4.32;3.10;;;;;;;4.88;28.54;99466.69;7658100;32;37881;-73
2021/12/26 15:33:41;;;;;;;6.40;3.90;;;;;;;4.98;27.79;99474.16;7657808;32;38262;-73
2021/12/26 15:37:59;;;;;;;6.62;4.15;;;;;;;4.86;26.68;99489.59;7657968;32;40619;-74
2021/12/26 15:42:15;;;;;;;6.75;3.60;;;;;;;4.31;29.93;99496.34;7658036;32;39592;-73
2021/12/26 15:46:34;;;;;;;8.43;3.92;;;;;;;4.30;32.86;99498.22;7657864;32;37479;-73
2021/12/26 15:50:51;;;;;;;12.70;5.32;;;;;;;4.13;33.69;99498.13;7657715;32;37136;-72
2021/12/26 15:55:07;;;;;;;7.97;4.43;;;;;;;4.11;34.15;99500.25;7657334;32;39507;-72
2021/12/26 15:59:23;;;;;;;6.43;4.10;;;;;;;4.01;35.98;99505.41;7657480;32;39805;-72
2021/12/26 16:03:39;;;;;;;6.97;3.85;;;;;;;4.07;35.69;99514.44;7657281;32;37490;-73
2021/12/26 16:07:56;;;;;;;4.87;3.20;;;;;;;4.13;35.47;99516.19;7656857;32;37898;-72
2021/12/26 16:12:12;;;;;;;4.30;3.15;;;;;;;3.87;34.17;99518.31;7643713;32;39387;-72
2021/12/26 16:16:28;;;;;;;4.55;3.37;;;;;;;3.65;36.02;99512.66;7657130;32;40709;-73
2021/12/26 16:20:44;;;;;;;5.18;3.62;;;;;;;3.95;36.11;99509.06;7656953;32;37759;-72
2021/12/26 16:25:00;;;;;;;3.42;3.12;;;;;;;4.08;33.57;99516.09;7660354;32;37270;-71
2021/12/26 16:29:16;;;;;;;5.68;3.67;;;;;;;4.03;35.30;99507.88;7660153;32;40010;-72
2021/12/26 16:33:32;;;;;;;6.30;3.62;;;;;;;3.73;37.56;99506.94;7660007;32;40728;-72
2021/12/26 16:37:51;;;;;;;8.02;3.92;;;;;;;3.84;36.31;99505.28;7646373;32;37934;-74
2021/12/26 16:42:07;;;;;;;7.35;3.72;;;;;;;3.88;35.41;99497.56;7660216;32;36080;-75
2021/12/26 16:46:24;;;;;;;5.97;3.70;;;;;;;3.90;35.81;99495.47;7660144;32;39063;-74
2021/12/26 16:50:42;;;;;;;6.12;3.80;;;;;;;3.73;34.21;99498.84;7656739;32;40087;-71
2021/12/26 16:54:58;;;;;;;6.40;3.97;;;;;;;3.69;35.29;99492.28;7656807;32;37660;-73
2021/12/26 16:59:14;;;;;;;3.72;3.40;;;;;;;3.62;35.71;99501.53;7659289;32;37891;-73
2021/12/26 17:03:30;;;;;;;6.35;3.58;;;;;;;3.65;36.01;99507.28;7650865;32;262691;-73
2021/12/26 17:07:47;;;;;;;6.57;3.70;;;;;;;3.85;35.05;99506.13;7658863;32;39851;-72
2021/12/26 17:12:04;;;;;;;4.20;3.42;;;;;;;3.53;35.23;99509.16;7640324;32;37819;-72
2021/12/26 17:16:20;;;;;;;5.90;3.45;;;;;;;3.42;34.71;99500.00;7658977;32;37231;-72
2021/12/26 17:20:36;;;;;;;6.53;3.92;;;;;;;3.52;34.28;99485.97;7658942;32;40145;-73
2021/12/26 17:24:53;;;;;;;5.75;4.07;;;;;;;3.53;34.35;99492.97;7658519;32;39581;-72
2021/12/26 17:29:10;;;;;;;8.57;4.18;;;;;;;3.53;35.88;99495.66;7637461;32;38659;-70
2021/12/26 17:33:28;;;;;;;6.12;4.00;;;;;;;3.55;35.15;99496.25;7617835;32;37888;-71
2021/12/26 17:37:46;;;;;;;8.52;4.45;;;;;;;3.28;34.38;99490.50;7618840;32;39541;-71
2021/12/26 17:42:03;;;;;;;8.68;5.15;;;;;;;3.74;33.09;99497.81;7617555;32;40803;-69
2021/12/26 17:46:20;;;;;;;10.05;6.00;;;;;;;3.75;34.52;99502.12;7618822;32;36518;-72
2021/12/26 17:50:36;;;;;;;12.90;6.65;;;;;;;3.48;36.58;99504.44;7613627;32;38090;-70
2021/12/26 17:55:15;;;;;;;12.40;7.18;;;;;;;3.44;36.86;99499.75;7613897;32;40496;-70
2021/12/26 17:59:31;;;;;;;13.30;6.93;;;;;;;3.37;38.97;99507.94;7604593;32;40817;-70
2021/12/26 18:03:47;;;;;;;13.13;7.50;;;;;;;3.43;36.33;99511.59;7624285;32;38029;-69
2021/12/26 18:08:04;;;;;;;19.50;8.90;;;;;;;3.39;37.49;99513.94;7653775;32;37078;-71
2021/12/26 18:12:21;;;;;;;14.27;6.62;;;;;;;3.37;39.15;99518.72;7658173;32;39473;-69
2021/12/26 18:16:37;;;;;;;18.70;6.72;;;;;;;3.57;39.03;99521.13;7658396;32;39907;-68
2021/12/26 18:20:53;;;;;;;10.55;6.30;;;;;;;3.60;38.28;99522.50;7657601;32;37979;-70
2021/12/26 18:25:10;;;;;;;10.85;6.37;;;;;;;3.38;38.69;99515.81;7657765;32;38074;-69
2021/12/26 18:29:26;;;;;;;13.85;6.28;;;;;;;3.35;38.46;99512.75;7656328;32;39405;-68
2021/12/26 18:33:42;;;;;;;8.38;5.30;;;;;;;3.42;37.95;99512.66;7655900;32;39912;-70
2021/12/26 18:37:59;;;;;;;10.35;6.07;;;;;;;3.47;36.92;99516.28;7655470;32;37847;-70
2021/12/26 18:42:15;;;;;;;9.80;5.85;;;;;;;3.47;37.08;99526.25;7655434;32;37918;-70
2021/12/26 18:46:31;;;;;;;10.32;5.97;;;;;;;3.52;37.09;99519.13;7654707;32;39332;-70
2021/12/26 18:50:50;;;;;;;9.43;5.28;;;;;;;3.63;37.61;99528.25;7653821;32;39676;-70
2021/12/26 18:55:07;;;;;;;12.37;5.75;;;;;;;3.43;36.84;99535.84;7654075;32;37774;-70
2021/12/26 18:59:24;;;;;;;9.07;4.90;;;;;;;3.51;37.19;99530.94;7657747;32;36874;-70
2021/12/26 19:03:41;;;;;;;11.38;5.93;;;;;;;3.35;39.29;99540.53;7656068;32;39412;-70
2021/12/26 19:07:59;;;;;;;10.18;5.35;;;;;;;3.51;39.91;99538.22;7655178;32;39498;-71
2021/12/26 19:12:15;;;;;;;10.18;5.72;;;;;;;3.39;38.91;99540.88;7654950;32;37491;-71
2021/12/26 19:16:32;;;;;;;8.35;5.22;;;;;;;3.56;37.10;99539.16;7655706;32;37404;-74
2021/12/26 19:20:48;;;;;;;11.23;6.18;;;;;;;3.36;37.75;99552.94;7652754;32;39031;-75
2021/12/26 19:25:06;;;;;;;12.23;7.05;;;;;;;3.45;37.88;99536.44;7655110;32;39701;-74
2021/12/26 19:29:25;;;;;;;12.85;7.47;;;;;;;3.07;38.85;99548.38;7655800;32;36939;-72
2021/12/26 19:33:45;;;;;;;21.67;11.93;;;;;;;3.33;39.30;99547.19;7655656;32;37677;-72
2021/12/26 19:38:04;;;;;;;18.33;8.77;;;;;;;3.23;39.06;99550.44;7655606;32;39923;-72
2021/12/26 19:42:22;;;;;;;8.43;5.43;;;;;;;3.24;41.13;99549.38;7656082;32;39552;-71
2021/12/26 19:46:40;;;;;;;8.77;5.18;;;;;;;3.11;40.42;99554.97;7655420;32;37475;-70
2021/12/26 19:50:57;;;;;;;7.75;5.10;;;;;;;3.16;40.26;99555.09;7655298;32;37859;-69
2021/12/26 19:55:13;;;;;;;12.27;5.70;;;;;;;3.21;39.10;99555.25;7655128;32;40542;-71
2021/12/26 19:59:31;;;;;;;11.48;6.55;;;;;;;3.26;39.24;99557.22;7654917;32;40600;-71
2021/12/26 20:03:48;;;;;;;9.02;5.65;;;;;;;3.25;39.90;99556.41;7653314;32;38769;-71
2021/12/26 20:08:06;;;;;;;10.60;6.00;;;;;;;3.50;38.17;99553.56;7655046;32;36999;-71
2021/12/26 20:12:22;;;;;;;14.85;5.65;;;;;;;3.27;40.00;99554.31;7654817;32;39460;-72
2021/12/26 20:16:40;;;;;;;11.12;5.30;;;;;;;3.32;39.92;99553.63;7654963;32;40724;-73
2021/12/26 20:20:57;;;;;;;11.85;5.60;;;;;;;3.15;40.72;99556.16;7654864;32;37701;-69
2021/12/26 20:25:13;;;;;;;10.98;5.87;;;;;;;3.63;40.48;99557.91;7654665;32;37596;-72
2021/12/26 20:29:29;;;;;;;10.82;5.95;;;;;;;3.78;41.09;99553.94;7654625;32;39784;-73